x

Central Dixon Entrance Buoy (46145) Wave Buoy

9:00am - Mon 31st Aug 2015 All times are PDT. -7 hours from GMT.

  • Sig Wave height 9.8ft
  • Peak Period 12s
  • Wind
    16mph, 18mph gusts
  • Sea Temp 55°f
  • Air Temp 53°f
  • Sea Pressure 1001.1mb
  • Central Dixon Entrance Buoy
  • Central Dixon Entrance Buoy

More Historic Weather Station data

Upgrade to MSW Pro to gain access to the past 30 days of data for over 8000 Wavebouys and Weather Stations around the globe.

Join Pro

Comparision Forecast

View Surf forecast
   
Mon 08/31 9:00am 10ft 12s 16 18 mph 1001.1mb 55f 53f
8:00am 11.5ft 11s 13 18 mph 1000.6mb 55f 53f
7:00am 9ft 11s 18 22 mph 1000mb 55f 54f
6:00am 9ft 11s 20 27 mph 999.4mb 55f 54f
5:00am 11ft 11s 16 20 mph 999mb 55f 54f
4:00am 10.5ft 10s 20 34 mph 998.4mb 55f 53f
3:00am 11ft 10s 20 25 mph 997.9mb 55f 53f
2:00am 10.5ft 9s 22 25 mph 997.5mb 55f 53f
1:00am 11ft 8s 22 27 mph 997.2mb 55f 54f
12:00am 10ft 10s 31 43 mph 996.9mb 55f 53f
Sun 08/30 11:00pm 9ft 9s 20 25 mph 996.1mb 55f 55f
10:00pm 10ft 9s 16 20 mph 995.6mb 55f 53f
9:00pm 9ft 9s 27 36 mph 994.9mb 55f 52f
8:00pm 8ft 10s 20 27 mph 993.7mb 55f 56f
7:00pm 7.5ft 10s 22 29 mph 992.9mb 55f 56f
6:00pm 7ft 10s 22 31 mph 992mb 55f 55f
5:00pm 8.5ft 9s 22 34 mph 991mb 55f 55f
4:00pm 8ft 10s 25 29 mph 989.9mb 56f 57f
3:00pm 8ft 15s 16 22 mph 989.3mb 55f 56f
2:00pm 8ft 8s 20 27 mph 988.4mb 55f 57f
1:00pm 7ft 10s 20 22 mph 988mb 55f 56f
12:00pm 7ft 11s 22 27 mph 987.4mb 56f 54f
11:00am 7ft 10s 36 43 mph 986.6mb 55f 54f
10:00am 7ft 11s 31 40 mph 988.4mb 55f 55f
9:00am 6.5ft 10s 27 36 mph 989.9mb 55f 55f
8:00am 6ft 10s 22 29 mph 991.4mb 56f 55f
7:00am 5.5ft 11s 20 22 mph 992.6mb 56f 55f
6:00am 5.5ft 11s 16 18 mph 993.4mb 56f 56f
5:00am 5.5ft 9s 16 20 mph 993.4mb 55f 56f
4:00am 6ft 11s 16 20 mph 993.6mb 56f 56f
3:00am 6ft 10s 18 20 mph 993.4mb 56f 56f
2:00am 6ft 10s 18 20 mph 993.2mb 56f 56f
1:00am 6ft 10s 18 20 mph 992.8mb 56f 56f
12:00am 7ft 11s 13 18 mph 992.7mb 56f 56f
Sat 08/29 11:00pm 7ft 10s 13 16 mph 992.7mb 57f 57f
10:00pm 6.5ft 10s 9 11 mph 992.6mb 57f 57f
9:00pm 7.5ft 11s 9 11 mph 992.4mb 57f 56f
8:00pm 8ft 12s 7 9 mph 991.9mb 57f 56f
7:00pm 8ft 12s 4 7 mph 991.6mb 58f 58f
6:00pm 7ft 12s 2 4 mph 991.3mb 57f 58f
5:00pm 6.5ft 11s 2 4 mph 990.8mb 57f 58f
4:00pm 7ft 12s 2 4 mph 990.4mb 57f 57f
3:00pm 7ft 12s 2 4 mph 990mb 57f 57f
2:00pm 8ft 12s 2 4 mph 989.9mb 57f 56f
1:00pm 8.5ft 11s 4 7 mph 990.1mb 56f 55f
12:00pm 8ft 11s 2 4 mph 990.2mb 56f 55f
11:00am 8ft 11s 2 4 mph 990.4mb 56f 55f
10:00am 8ft 12s 2 4 mph 990.8mb 56f 54f
9:00am 7.5ft 12s 4 7 mph 991.2mb 56f 54f
8:00am 7.5ft 12s 7 9 mph 991.9mb 55f 54f
7:00am 8ft 11s 11 13 mph 992.4mb 55f 55f
6:00am 7ft 13s 9 11 mph 993mb 56f 54f
5:00am 6ft 12s 7 9 mph 993.4mb 56f 54f
4:00am 6ft 12s 9 13 mph 993.9mb 56f 56f
3:00am 6.5ft 12s 9 13 mph 994.3mb 57f 56f
2:00am 6ft 10s 9 11 mph 995.2mb 57f 56f
1:00am 6ft 11s 9 11 mph 995.6mb 57f 56f
12:00am 5.5ft 7s 7 9 mph 995.9mb 56f 56f
Fri 08/28 11:00pm 5ft 8s 7 9 mph 996.1mb 56f 56f
10:00pm 5ft 8s 9 11 mph 996.8mb 56f 57f
9:00pm 5ft 8s 7 9 mph 996.9mb 57f 56f
7:00pm 4.5ft 8s 4 7 mph 996.8mb 57f 55f
6:00pm 4.5ft 16s 11 13 mph 996.2mb 57f 57f
5:00pm 5ft 16s 16 20 mph 996.3mb 57f 56f
4:00pm 5ft 8s 16 18 mph 996.2mb 57f 58f
3:00pm 5ft 8s 13 18 mph 996.3mb 57f 57f
2:00pm 5ft 7s 16 20 mph 995.5mb 57f 58f
1:00pm 5ft 8s 20 25 mph 995.5mb 57f 57f
12:00pm 5.5ft 7s 25 29 mph 995mb 57f 58f
11:00am 5ft 8s 27 31 mph 994.8mb 57f 58f
10:00am 5ft 7s 25 29 mph 995.3mb 57f 58f
9:00am 5.5ft 7s 18 22 mph 996.5mb 57f 58f
8:00am 5ft 7s 16 20 mph 997.3mb 57f 58f
7:00am 4.5ft 8s 20 25 mph 997.9mb 57f 57f
6:00am 4.5ft 15s 20 25 mph 998.2mb 58f 57f
5:00am 3.5ft 15s 18 25 mph 999.3mb 58f 57f
4:00am 3.5ft 16s 18 22 mph 1000.4mb 58f 57f
3:00am 3ft 14s 20 25 mph 1001.4mb 57f 58f
2:00am 2.5ft 16s 18 22 mph 1002.5mb 57f 58f
1:00am 2.5ft 16s 16 20 mph 1003.9mb 58f 58f
12:00am 2.5ft 14s 13 16 mph 1005mb 58f 59f
Thu 08/27 11:00pm 2.5ft 14s 13 18 mph 1006mb 58f 59f
10:00pm 2.5ft 15s 11 13 mph 1007.5mb 58f 58f
9:00pm 2.5ft 14s 13 16 mph 1008.8mb 57f 57f
8:00pm 2.5ft 15s 9 11 mph 1009.8mb 58f 57f
7:00pm 2.5ft 14s 9
mph
1011.1mb 58f 57f
6:00pm 2.5ft 14s 9
mph
1012.1mb 58f 57f